createdAt,value
2018-04-23T00:01:03.680Z,64.60
2018-04-23T00:03:31.263Z,65.90
2018-04-23T00:05:58.849Z,64.60
2018-04-23T00:08:26.464Z,64.30
2018-04-23T00:10:54.048Z,65.10
2018-04-23T00:13:23.623Z,63.90
2018-04-23T00:15:51.314Z,65.00
2018-04-23T00:18:18.919Z,65.10
2018-04-23T00:20:46.525Z,63.60
2018-04-23T00:23:14.140Z,64.70
2018-04-23T00:25:42.503Z,65.70
2018-04-23T00:28:10.084Z,65.70
2018-04-23T00:30:38.475Z,68.30
2018-04-23T00:33:06.825Z,69.60
2018-04-23T00:35:34.925Z,69.50
2018-04-23T00:38:03.283Z,70.50
2018-04-23T00:40:30.896Z,70.50
2018-04-23T00:42:58.468Z,71.20
2018-04-23T00:45:26.047Z,71.30
2018-04-23T00:47:53.685Z,72.60
2018-04-23T00:50:21.280Z,72.40
2018-04-23T00:53:00.715Z,72.30
2018-04-23T00:55:28.303Z,73.00
2018-04-23T00:57:56.671Z,72.50
2018-04-23T01:00:24.251Z,72.40
2018-04-23T01:02:52.602Z,72.70
2018-04-23T01:05:20.211Z,72.70
2018-04-23T01:07:47.795Z,72.50
2018-04-23T01:10:15.412Z,71.00
2018-04-23T01:12:43.007Z,71.70
2018-04-23T01:15:10.615Z,70.60
2018-04-23T01:17:38.207Z,71.90
2018-04-23T01:20:05.893Z,69.40
2018-04-23T01:22:33.484Z,69.60
2018-04-23T01:25:01.074Z,69.10
2018-04-23T01:27:29.448Z,68.70
2018-04-23T01:29:58.809Z,67.80
2018-04-23T01:32:26.412Z,67.80
2018-04-23T01:34:54.756Z,67.20
2018-04-23T01:37:22.361Z,67.10
2018-04-23T01:39:50.712Z,67.00
2018-04-23T01:42:18.621Z,67.00
2018-04-23T01:44:46.239Z,68.60
2018-04-23T01:47:13.818Z,67.40
2018-04-23T01:49:42.184Z,68.00
2018-04-23T01:52:09.764Z,68.00
2018-04-23T01:54:38.173Z,68.70
2018-04-23T01:57:05.771Z,68.60
2018-04-23T01:59:33.373Z,68.10
2018-04-23T02:02:00.962Z,68.90
2018-04-23T02:04:28.571Z,68.30
2018-04-23T02:06:56.172Z,69.10
2018-04-23T02:09:23.761Z,69.50
2018-04-23T02:11:51.371Z,70.20
2018-04-23T02:14:19.720Z,70.00
2018-04-23T02:16:47.329Z,70.00
2018-04-23T02:19:14.947Z,71.10
2018-04-23T02:21:42.555Z,70.40
2018-04-23T02:24:10.140Z,69.80
2018-04-23T02:26:37.787Z,69.70
2018-04-23T02:29:05.371Z,69.20
2018-04-23T02:31:32.953Z,68.80
2018-04-23T02:34:00.561Z,68.80
2018-04-23T02:36:35.028Z,68.30
2018-04-23T02:39:02.639Z,68.90
2018-04-23T02:41:30.232Z,68.80
2018-04-23T02:43:57.844Z,68.70
2018-04-23T02:46:26.197Z,68.90
2018-04-23T02:48:53.837Z,68.80
2018-04-23T02:51:21.447Z,68.50
2018-04-23T02:53:49.808Z,70.10
2018-04-23T02:56:18.177Z,69.40
2018-04-23T02:58:45.767Z,69.40
2018-04-23T03:01:13.372Z,69.20
2018-04-23T03:03:40.962Z,69.20
2018-04-23T03:06:08.618Z,68.80
2018-04-23T03:08:36.536Z,69.10
2018-04-23T03:11:04.156Z,69.30
2018-04-23T03:13:31.739Z,69.60
2018-04-23T03:15:59.331Z,70.00
2018-04-23T03:18:26.939Z,69.30
2018-04-23T03:20:54.517Z,69.00
2018-04-23T03:23:22.895Z,68.70
2018-04-23T03:25:54.632Z,70.10
2018-04-23T03:28:24.249Z,70.10
2018-04-23T03:30:52.599Z,70.40
2018-04-23T03:33:20.228Z,70.40
2018-04-23T03:35:47.808Z,69.80
2018-04-23T03:38:15.421Z,69.70
2018-04-23T03:40:43.796Z,69.40
2018-04-23T03:43:12.147Z,69.70
2018-04-23T03:45:45.206Z,69.70
2018-04-23T03:48:12.788Z,68.80
2018-04-23T03:50:40.408Z,69.30
2018-04-23T03:53:07.999Z,68.90
2018-04-23T03:55:35.620Z,68.80
2018-04-23T03:58:03.210Z,68.10
2018-04-23T04:00:30.797Z,68.30
2018-04-23T04:02:58.412Z,68.90
2018-04-23T04:05:25.996Z,68.10
2018-04-23T04:07:54.054Z,68.80
2018-04-23T04:10:21.668Z,68.80
2018-04-23T04:13:01.446Z,68.70
2018-04-23T04:15:40.887Z,68.90
2018-04-23T04:21:08.052Z,70.50
2018-04-23T04:23:35.664Z,71.10
2018-04-23T04:26:04.018Z,71.70
2018-04-23T04:28:31.603Z,71.60
2018-04-23T04:30:59.212Z,70.80
2018-04-23T04:33:26.804Z,73.10
2018-04-23T04:35:54.433Z,73.80
2018-04-23T04:38:22.057Z,75.10
2018-04-23T04:40:50.426Z,73.90
2018-04-23T04:43:18.036Z,73.80
2018-04-23T04:45:45.633Z,75.60
2018-04-23T04:48:13.247Z,76.40
2018-04-23T04:50:45.075Z,76.10
2018-04-23T04:53:12.681Z,76.10
2018-04-23T04:55:40.288Z,76.00
2018-04-23T04:58:07.892Z,78.20
2018-04-23T05:00:36.238Z,76.00
2018-04-23T05:03:03.826Z,76.00
2018-04-23T05:05:32.201Z,77.30
2018-04-23T05:08:00.551Z,77.50
2018-04-23T05:10:28.160Z,77.30
2018-04-23T05:12:55.832Z,79.00
2018-04-23T05:15:23.452Z,80.00
2018-04-23T05:17:51.055Z,78.70
2018-04-23T05:20:18.669Z,80.00
2018-04-23T05:22:46.256Z,76.40
2018-04-23T05:25:14.610Z,75.70
2018-04-23T05:27:42.222Z,75.60
2018-04-23T05:30:11.046Z,75.50
2018-04-23T05:32:38.683Z,75.50
2018-04-23T05:35:06.268Z,74.50
2018-04-23T05:37:33.896Z,72.70
2018-04-23T05:40:02.510Z,73.20
2018-04-23T05:42:30.183Z,72.30
2018-04-23T05:44:57.767Z,72.10
2018-04-23T05:47:26.115Z,72.50
2018-04-23T05:49:53.717Z,72.50
2018-04-23T05:52:21.341Z,72.60
2018-04-23T05:54:48.948Z,72.90
2018-04-23T05:57:16.537Z,73.60
2018-04-23T05:59:44.143Z,74.40
2018-04-23T06:02:15.771Z,74.40
2018-04-23T06:04:43.375Z,74.40
2018-04-23T06:07:11.729Z,74.50
2018-04-23T06:09:39.327Z,74.30
2018-04-23T06:12:06.933Z,74.50
2018-04-23T06:14:34.532Z,74.60
2018-04-23T06:17:02.910Z,74.60
2018-04-23T06:19:31.256Z,74.10
2018-04-23T06:21:58.864Z,74.00
2018-04-23T06:24:26.456Z,72.40
2018-04-23T06:26:55.107Z,73.30
2018-04-23T06:29:22.685Z,73.80
2018-04-23T06:31:50.283Z,73.50
2018-04-23T06:34:17.906Z,72.40
2018-04-23T06:36:45.508Z,73.10
2018-04-23T06:39:13.127Z,73.60
2018-04-23T06:41:40.732Z,75.30
2018-04-23T06:44:08.468Z,74.60
2018-04-23T06:46:36.095Z,73.90
2018-04-23T06:49:03.792Z,74.10
2018-04-23T06:51:44.360Z,74.80
2018-04-23T06:54:11.976Z,74.20
2018-04-23T06:56:40.328Z,76.30
2018-04-23T06:59:07.962Z,76.30
2018-04-23T07:01:35.560Z,75.90
2018-04-23T07:04:03.153Z,74.70
2018-04-23T07:06:30.760Z,74.70
2018-04-23T07:08:58.361Z,73.20
2018-04-23T07:11:25.964Z,73.80
2018-04-23T07:13:53.637Z,74.10
2018-04-23T07:16:21.261Z,74.50
2018-04-23T07:18:48.849Z,74.40
2018-04-23T07:21:16.428Z,75.60
2018-04-23T07:23:44.041Z,74.60
2018-04-23T07:26:11.630Z,73.50
2018-04-23T07:28:39.272Z,74.40
2018-04-23T07:31:06.876Z,74.50
2018-04-23T07:33:34.485Z,74.80
2018-04-23T07:36:02.084Z,77.30
2018-04-23T07:38:29.730Z,78.60
2018-04-23T07:40:57.321Z,79.50
2018-04-23T07:43:24.920Z,80.20
2018-04-23T07:45:53.289Z,81.90
2018-04-23T07:48:21.671Z,82.70
2018-04-23T07:50:50.056Z,82.00
2018-04-23T07:53:18.403Z,80.70
2018-04-23T07:55:46.018Z,80.60
2018-04-23T07:58:13.608Z,81.50
2018-04-23T08:00:41.220Z,82.40
2018-04-23T08:03:09.611Z,83.80
2018-04-23T08:05:37.228Z,83.70
2018-04-23T08:08:04.836Z,84.40
2018-04-23T08:10:32.428Z,84.20
2018-04-23T08:13:00.048Z,85.20
2018-04-23T08:15:27.631Z,86.40
2018-04-23T08:17:55.249Z,85.50
2018-04-23T08:20:23.600Z,87.30
2018-04-23T08:22:51.195Z,87.30
2018-04-23T08:25:19.572Z,88.40
2018-04-23T08:27:47.921Z,89.40
2018-04-23T08:30:15.559Z,89.40
2018-04-23T08:32:43.156Z,90.30
2018-04-23T08:35:11.521Z,90.50
2018-04-23T08:37:39.116Z,90.70
2018-04-23T08:40:07.502Z,94.90
2018-04-23T08:42:35.851Z,96.60
2018-04-23T08:45:03.453Z,96.60
2018-04-23T08:47:31.071Z,98.30
2018-04-23T08:49:58.704Z,99.90
2018-04-23T08:52:26.309Z,99.90
2018-04-23T08:54:53.910Z,99.90
2018-04-23T08:57:21.511Z,99.90
2018-04-23T08:59:49.086Z,99.90
2018-04-23T09:02:16.703Z,99.90
2018-04-23T09:04:44.291Z,99.90
2018-04-23T09:07:11.897Z,99.90
2018-04-23T09:09:39.507Z,99.90
2018-04-23T09:12:07.111Z,99.90
2018-04-23T09:14:35.487Z,99.90
2018-04-23T09:17:03.835Z,99.90
2018-04-23T09:19:31.443Z,99.90
2018-04-23T09:21:59.050Z,99.90
2018-04-23T09:24:26.648Z,99.90
2018-04-23T09:26:55.029Z,99.90
2018-04-23T09:29:23.392Z,99.90
2018-04-23T09:31:51.781Z,99.90
2018-04-23T09:34:25.967Z,99.60
2018-04-23T09:36:53.628Z,99.50
2018-04-23T09:39:21.211Z,99.10
2018-04-23T09:41:49.608Z,98.40
2018-04-23T09:44:17.203Z,98.40
2018-04-23T09:46:44.803Z,96.70
2018-04-23T09:49:12.416Z,97.20
2018-04-23T09:51:41.971Z,97.60
2018-04-23T09:54:09.584Z,96.70
2018-04-23T09:56:37.177Z,95.60
2018-04-23T09:59:04.785Z,95.40
2018-04-23T10:01:32.375Z,95.10
2018-04-23T10:04:05.861Z,95.60
2018-04-23T10:06:33.456Z,96.30
2018-04-23T10:09:01.836Z,96.30
2018-04-23T10:11:52.580Z,96.30
2018-04-23T10:14:20.965Z,97.70
2018-04-23T10:16:48.558Z,97.60
2018-04-23T10:19:16.140Z,97.80
2018-04-23T10:21:43.761Z,98.30
2018-04-23T10:24:11.347Z,98.60
2018-04-23T10:26:38.961Z,99.90
2018-04-23T10:29:07.323Z,99.90
2018-04-23T10:31:34.940Z,99.90
2018-04-23T10:34:02.525Z,99.90
2018-04-23T10:36:30.172Z,99.90
2018-04-23T10:38:57.795Z,99.90
2018-04-23T10:41:25.423Z,99.90
2018-04-23T10:43:53.049Z,99.90
2018-04-23T10:46:20.638Z,99.90
2018-04-23T10:48:48.311Z,99.90
2018-04-23T10:51:15.912Z,99.90
2018-04-23T10:53:43.533Z,99.90
2018-04-23T10:56:11.125Z,99.90
2018-04-23T10:58:38.817Z,99.40
2018-04-23T11:01:06.429Z,99.90
2018-04-23T11:03:34.787Z,98.80
2018-04-23T11:06:02.412Z,98.80
2018-04-23T11:08:30.004Z,98.40
2018-04-23T11:10:57.628Z,96.20
2018-04-23T11:13:25.222Z,95.50
2018-04-23T11:15:52.891Z,96.50
2018-04-23T11:18:20.476Z,95.10
2018-04-23T11:20:48.827Z,96.10
2018-04-23T11:23:16.472Z,96.10
2018-04-23T11:25:44.051Z,94.70
2018-04-23T11:28:13.679Z,94.70
2018-04-23T11:30:42.032Z,93.60
2018-04-23T11:33:09.645Z,93.60
2018-04-23T11:35:37.275Z,94.00
2018-04-23T11:38:04.908Z,94.50
2018-04-23T11:40:32.496Z,95.00
2018-04-23T11:43:00.151Z,94.90
2018-04-23T11:45:27.750Z,94.50
2018-04-23T11:47:55.347Z,94.60
2018-04-23T11:50:22.952Z,94.60
2018-04-23T11:52:51.312Z,95.80
2018-04-23T11:55:18.947Z,95.90
2018-04-23T11:57:46.549Z,96.90
2018-04-23T12:00:14.974Z,97.10
2018-04-23T12:02:42.569Z,97.10
2018-04-23T12:05:10.164Z,97.20
2018-04-23T12:07:37.794Z,98.00
2018-04-23T12:10:05.555Z,98.70
2018-04-23T12:12:33.192Z,99.70
2018-04-23T12:15:01.030Z,99.60
2018-04-23T12:17:28.641Z,98.80
2018-04-23T12:19:56.268Z,99.90
2018-04-23T12:22:23.901Z,99.90
2018-04-23T12:24:53.360Z,99.90
2018-04-23T12:27:20.970Z,99.90
2018-04-23T12:29:49.363Z,99.90
2018-04-23T12:32:17.512Z,99.90
2018-04-23T12:34:45.951Z,99.90
2018-04-23T12:37:13.524Z,99.90
2018-04-23T12:39:42.163Z,99.90
2018-04-23T12:42:09.811Z,99.90
2018-04-23T12:44:38.193Z,99.90
2018-04-23T12:47:05.776Z,99.90
2018-04-23T12:49:33.368Z,99.90
2018-04-23T12:52:01.028Z,99.90
2018-04-23T12:54:28.615Z,99.90
2018-04-23T12:56:56.924Z,99.90
2018-04-23T12:59:24.551Z,99.90
2018-04-23T13:01:52.226Z,99.90
2018-04-23T13:04:20.625Z,99.90
2018-04-23T13:06:48.955Z,99.90
2018-04-23T13:09:16.569Z,99.90
2018-04-23T13:11:44.432Z,99.90
2018-04-23T13:14:12.039Z,99.90
2018-04-23T13:16:39.639Z,99.90
2018-04-23T13:19:13.122Z,99.90
2018-04-23T13:21:42.499Z,99.90
2018-04-23T13:24:10.129Z,99.90
2018-04-23T13:26:37.723Z,99.90
2018-04-23T13:29:05.340Z,99.90
2018-04-23T13:31:41.106Z,99.90
2018-04-23T13:34:08.740Z,99.90
2018-04-23T13:36:37.096Z,99.00
2018-04-23T13:39:06.272Z,96.00
2018-04-23T13:41:33.890Z,95.70
2018-04-23T13:44:01.905Z,97.30
2018-04-23T13:46:30.304Z,96.80
2018-04-23T13:49:10.317Z,96.00
2018-04-23T13:51:38.937Z,96.00
2018-04-23T13:54:12.592Z,96.70
2018-04-23T13:56:44.443Z,95.00
2018-04-23T13:59:12.054Z,94.50
2018-04-23T14:01:39.691Z,93.20
2018-04-23T14:04:07.349Z,93.20
2018-04-23T14:06:35.952Z,95.20
2018-04-23T14:09:06.797Z,95.40
2018-04-23T14:11:40.067Z,95.30
2018-04-23T14:14:07.671Z,92.80
2018-04-23T14:16:36.025Z,94.50
2018-04-23T14:19:03.633Z,94.50
2018-04-23T14:21:33.192Z,93.60
2018-04-23T14:24:02.857Z,93.10
2018-04-23T14:26:30.467Z,93.00
2018-04-23T14:28:58.055Z,92.70
2018-04-23T14:31:26.433Z,92.30
2018-04-23T14:33:54.784Z,93.00
2018-04-23T14:36:22.388Z,93.10
2018-04-23T14:38:49.984Z,92.50
2018-04-23T14:41:17.827Z,93.50
2018-04-23T14:43:45.421Z,93.80
2018-04-23T14:46:13.183Z,94.50
2018-04-23T14:48:40.790Z,93.50
2018-04-23T14:51:10.163Z,94.50
2018-04-23T14:53:37.770Z,94.50
2018-04-23T14:56:05.359Z,94.60
2018-04-23T14:58:32.966Z,93.50
2018-04-23T15:01:04.607Z,93.60
2018-04-23T15:03:33.162Z,94.20
2018-04-23T15:06:00.740Z,94.10
2018-04-23T15:08:28.333Z,94.30
2018-04-23T15:10:56.711Z,94.70
2018-04-23T15:13:25.062Z,95.00
2018-04-23T15:15:53.680Z,95.00
2018-04-23T15:18:22.049Z,95.50
2018-04-23T15:20:50.423Z,95.80
2018-04-23T15:23:18.788Z,95.20
2018-04-23T15:25:46.420Z,95.20
2018-04-23T15:28:17.313Z,95.60
2018-04-23T15:30:45.710Z,95.40
2018-04-23T15:33:13.320Z,95.30
2018-04-23T15:35:40.912Z,95.40
2018-04-23T15:38:09.323Z,96.10
2018-04-23T15:40:36.928Z,96.10
2018-04-23T15:43:04.539Z,96.30
2018-04-23T15:45:32.124Z,96.20
2018-04-23T15:47:59.708Z,96.10
2018-04-23T15:50:27.326Z,95.50
2018-04-23T15:52:59.639Z,95.40
2018-04-23T15:55:27.265Z,96.30
2018-04-23T15:57:54.859Z,96.40
2018-04-23T16:00:22.466Z,96.20
2018-04-23T16:02:50.055Z,96.10
2018-04-23T16:05:19.607Z,96.50
2018-04-23T16:07:47.960Z,97.10
2018-04-23T16:10:15.542Z,97.10
2018-04-23T16:12:43.196Z,97.00
2018-04-23T16:15:10.780Z,96.50
2018-04-23T16:17:39.172Z,96.20
2018-04-23T16:20:06.770Z,96.20
2018-04-23T16:22:34.379Z,96.10
2018-04-23T16:25:02.940Z,95.30
2018-04-23T16:27:32.869Z,95.30
2018-04-23T16:30:01.311Z,92.80
2018-04-23T16:32:29.616Z,92.20
2018-04-23T16:34:57.236Z,92.20
2018-04-23T16:37:24.812Z,92.00
2018-04-23T16:39:52.482Z,92.90
2018-04-23T16:42:20.073Z,92.60
2018-04-23T16:44:50.543Z,92.60
2018-04-23T16:47:16.079Z,92.30
2018-04-23T16:49:43.696Z,92.50
2018-04-23T16:52:20.700Z,92.60
2018-04-23T16:54:48.376Z,92.60
2018-04-23T16:57:15.955Z,92.60
2018-04-23T16:59:43.540Z,93.00
2018-04-23T17:02:11.916Z,93.10
2018-04-23T17:04:40.284Z,93.00
2018-04-23T17:07:07.887Z,93.00
2018-04-23T17:09:35.729Z,93.20
2018-04-23T17:12:04.107Z,93.30
2018-04-23T17:14:45.115Z,93.10
2018-04-23T17:17:13.652Z,93.10
2018-04-23T17:19:41.265Z,93.10
2018-04-23T17:22:08.863Z,93.20
2018-04-23T17:24:36.476Z,92.70
2018-04-23T17:27:04.163Z,93.00
2018-04-23T17:29:32.787Z,93.10
2018-04-23T17:32:00.374Z,92.90
2018-04-23T17:34:27.992Z,93.50
2018-04-23T17:36:55.579Z,93.00
2018-04-23T17:39:23.931Z,93.50
2018-04-23T17:41:55.208Z,93.50
2018-04-23T17:44:23.562Z,93.60
2018-04-23T17:46:51.955Z,93.70
2018-04-23T17:49:20.301Z,93.90
2018-04-23T17:51:47.914Z,93.90
2018-04-23T17:54:16.271Z,94.20
2018-04-23T17:56:44.859Z,94.20
2018-04-23T17:59:12.447Z,94.10
2018-04-23T18:01:40.036Z,94.00
2018-04-23T18:04:07.645Z,94.10
2018-04-23T18:06:37.225Z,94.10
2018-04-23T18:09:05.587Z,94.20
2018-04-23T18:11:33.174Z,94.40
2018-04-23T18:14:00.801Z,94.60
2018-04-23T18:16:28.671Z,94.30
2018-04-23T18:18:56.290Z,94.20
2018-04-23T18:21:24.644Z,94.20
2018-04-23T18:23:52.239Z,94.20
2018-04-23T18:26:20.614Z,95.00
2018-04-23T18:28:48.970Z,95.20
2018-04-23T18:31:16.584Z,95.20
2018-04-23T18:33:44.175Z,95.60
2018-04-23T18:36:12.153Z,95.50
2018-04-23T18:38:40.755Z,96.00
2018-04-23T18:41:09.159Z,95.90
2018-04-23T18:43:36.751Z,95.80
2018-04-23T18:46:04.383Z,96.30
2018-04-23T18:48:31.972Z,96.30
2018-04-23T18:51:00.587Z,96.60
2018-04-23T18:53:28.196Z,97.30
2018-04-23T18:55:55.787Z,97.20
2018-04-23T18:58:23.415Z,97.40
2018-04-23T19:00:51.004Z,97.30
2018-04-23T19:03:18.633Z,97.60
2018-04-23T19:05:48.343Z,97.80
2018-04-23T19:08:15.999Z,97.60
2018-04-23T19:10:43.629Z,97.80
2018-04-23T19:13:12.192Z,97.80
2018-04-23T19:15:40.832Z,97.50
2018-04-23T19:18:08.443Z,97.70
2018-04-23T19:20:36.063Z,97.80
2018-04-23T19:23:03.653Z,97.80
2018-04-23T19:25:33.288Z,97.80
2018-04-23T19:28:00.880Z,97.90
2018-04-23T19:30:28.507Z,98.10
2018-04-23T19:32:57.146Z,98.00
2018-04-23T19:35:25.456Z,98.10
2018-04-23T19:37:53.088Z,98.10
2018-04-23T19:40:20.700Z,98.20
2018-04-23T19:42:48.321Z,98.30
2018-04-23T19:45:15.915Z,98.30
2018-04-23T19:47:45.042Z,98.50
2018-04-23T19:50:17.700Z,98.50
2018-04-23T19:52:46.119Z,98.50
2018-04-23T19:55:13.742Z,98.50
2018-04-23T19:57:42.104Z,98.80
2018-04-23T20:00:09.726Z,98.80
2018-04-23T20:02:38.346Z,98.80
2018-04-23T20:05:05.965Z,98.90
2018-04-23T20:07:33.549Z,99.10
2018-04-23T20:10:01.176Z,99.00
2018-04-23T20:12:28.763Z,99.10
2018-04-23T20:14:56.390Z,99.10
2018-04-23T20:17:23.981Z,99.00
2018-04-23T20:19:52.599Z,98.90
2018-04-23T20:22:20.217Z,99.10
2018-04-23T20:24:47.801Z,99.60
2018-04-23T20:27:15.420Z,99.80
2018-04-23T20:29:43.767Z,99.90
2018-04-23T20:32:11.380Z,99.90
2018-04-23T20:34:38.976Z,99.90
2018-04-23T20:37:06.592Z,99.90
2018-04-23T20:39:36.146Z,99.90
2018-04-23T20:42:03.738Z,99.90
2018-04-23T20:44:32.114Z,99.90
2018-04-23T20:47:00.460Z,99.90
2018-04-23T20:49:28.067Z,99.90
2018-04-23T20:51:56.428Z,99.90
2018-04-23T20:54:28.080Z,99.90
2018-04-23T20:56:55.672Z,99.90
2018-04-23T20:59:23.373Z,99.90
2018-04-23T21:01:51.674Z,99.90
2018-04-23T21:04:19.285Z,99.90
2018-04-23T21:06:46.871Z,99.90
2018-04-23T21:09:14.465Z,99.90
2018-04-23T21:11:42.841Z,99.90
2018-04-23T21:14:10.435Z,99.90
2018-04-23T21:16:38.043Z,99.90
2018-04-23T21:19:05.625Z,99.90
2018-04-23T21:21:33.239Z,99.90
2018-04-23T21:24:00.832Z,99.90
2018-04-23T21:26:28.451Z,99.90
2018-04-23T21:28:56.678Z,99.90
2018-04-23T21:31:24.276Z,99.90
2018-04-23T21:33:51.885Z,99.90
2018-04-23T21:36:19.480Z,99.90
2018-04-23T21:38:47.867Z,99.90
2018-04-23T21:41:16.220Z,99.90
2018-04-23T21:43:43.930Z,99.90
2018-04-23T21:46:11.459Z,99.90
2018-04-23T21:48:39.830Z,99.90
2018-04-23T21:51:08.184Z,99.90
2018-04-23T21:53:35.780Z,99.90
2018-04-23T21:56:04.162Z,99.90
2018-04-23T21:58:32.521Z,99.90
2018-04-23T22:01:00.137Z,99.90
2018-04-23T22:03:27.728Z,99.90
2018-04-23T22:05:55.338Z,99.90
2018-04-23T22:08:22.931Z,99.90
2018-04-23T22:10:50.516Z,99.90
2018-04-23T22:13:18.132Z,99.90
2018-04-23T22:15:45.808Z,99.90
2018-04-23T22:18:13.422Z,99.90
2018-04-23T22:20:41.027Z,99.90
2018-04-23T22:23:08.640Z,99.90
2018-04-23T22:25:37.760Z,99.90
2018-04-23T22:28:05.411Z,99.90
2018-04-23T22:30:33.768Z,99.90
2018-04-23T22:33:01.369Z,99.90
2018-04-23T22:35:28.989Z,99.90
2018-04-23T22:37:56.587Z,99.90
2018-04-23T22:40:24.196Z,99.90
2018-04-23T22:42:51.796Z,99.90
2018-04-23T22:45:20.179Z,99.90
2018-04-23T22:47:47.774Z,99.90
2018-04-23T22:50:15.393Z,99.90
2018-04-23T22:52:43.758Z,99.90
2018-04-23T22:55:11.347Z,99.90
2018-04-23T22:57:38.963Z,99.90
2018-04-23T23:00:06.554Z,99.90
2018-04-23T23:02:34.929Z,99.90
2018-04-23T23:05:03.278Z,99.90
2018-04-23T23:07:30.894Z,99.90
2018-04-23T23:09:58.482Z,99.90
2018-04-23T23:12:26.073Z,99.90
2018-04-23T23:14:53.712Z,99.90
2018-04-23T23:17:21.301Z,99.90
2018-04-23T23:19:49.672Z,99.90
2018-04-23T23:22:18.046Z,99.90
2018-04-23T23:24:45.660Z,99.90
2018-04-23T23:27:13.255Z,99.90
2018-04-23T23:29:40.849Z,99.90
2018-04-23T23:32:09.232Z,99.90
2018-04-23T23:34:37.599Z,99.90
2018-04-23T23:37:05.982Z,99.90
2018-04-23T23:39:34.335Z,99.90
2018-04-23T23:42:01.956Z,99.90
2018-04-23T23:44:29.549Z,99.90
2018-04-23T23:46:57.158Z,99.90
2018-04-23T23:49:24.788Z,99.90
2018-04-23T23:51:52.384Z,99.90
2018-04-23T23:54:20.487Z,99.90
2018-04-23T23:56:48.081Z,99.90
2018-04-23T23:59:15.803Z,99.90
